Time;durP1;ratioP1;P1;durP2;ratioP2;P2;SDS_P1;SDS_P2;PMS_P1;PMS_P2;Temp;Humidity;BMP_temperature;BMP_pressure;BME280_temperature;BME280_humidity;BME280_pressure;Samples;Min_cycle;Max_cycle;Signal;HPM_P1;HPM_P2
2023/09/25 00:01:10;;;;;;;;;;;;;;;24.61;52.15;98920.38;4978069;28;19918;-74
2023/09/25 00:03:35;;;;;;;;;;;;;;;24.58;52.16;98907.44;4994129;28;19918;-74
2023/09/25 00:06:01;;;;;;;;;;;;;;;24.58;52.18;98912.78;4995527;28;19921;-74
2023/09/25 00:08:26;;;;;;;;;;;;;;;24.57;51.94;98900.44;4995334;28;19941;-74
2023/09/25 00:10:52;;;;;;;;;;;;;;;24.55;52.00;98900.63;4994247;28;20436;-74
2023/09/25 00:13:17;;;;;;;;;;;;;;;24.55;51.92;98900.63;4994596;28;19918;-74
2023/09/25 00:15:44;;;;;;;;;;;;;;;24.55;52.04;98897.13;4994044;28;19945;-75
2023/09/25 00:18:09;;;;;;;;;;;;;;;24.58;51.71;98899.44;4993946;28;19918;-74
2023/09/25 00:20:34;;;;;;;;;;;;;;;24.55;51.93;98897.13;4995284;28;19925;-74
2023/09/25 00:23:00;;;;;;;;;;;;;;;24.51;52.06;98898.56;4993513;28;19940;-74
2023/09/25 00:25:28;;;;;;;;;;;;;;;24.51;52.04;98894.06;4995143;28;20305;-74
2023/09/25 00:27:53;;;;;;;;;;;;;;;24.54;51.94;98895.47;4993827;28;19925;-74
2023/09/25 00:30:18;;;;;;;;;;;;;;;24.54;51.77;98901.66;4993703;28;20317;-74
2023/09/25 00:32:44;;;;;;;;;;;;;;;24.54;51.54;98895.47;4993616;28;19918;-74
2023/09/25 00:35:10;;;;;;;;;;;;;;;24.55;51.59;98894.47;4995346;28;19918;-74
2023/09/25 00:37:36;;;;;;;;;;;;;;;24.53;51.73;98892.00;4994314;28;20028;-74
2023/09/25 00:40:12;;;;;;;;;;;;;;;24.50;51.79;98887.06;4977668;28;20056;-74
2023/09/25 00:42:38;;;;;;;;;;;;;;;24.50;51.67;98888.94;4993815;28;20382;-74
2023/09/25 00:45:04;;;;;;;;;;;;;;;24.50;51.66;98895.06;4993343;28;19925;-74
2023/09/25 00:47:29;;;;;;;;;;;;;;;24.48;51.70;98890.97;4993552;28;19939;-74
2023/09/25 00:49:54;;;;;;;;;;;;;;;24.49;51.61;98888.09;4993806;28;19918;-74
2023/09/25 00:52:20;;;;;;;;;;;;;;;24.54;51.43;98895.47;4993608;28;20313;-74
2023/09/25 00:54:45;;;;;;;;;;;;;;;24.52;51.66;98902.88;4977074;28;19925;-75
2023/09/25 00:57:10;;;;;;;;;;;;;;;24.52;51.57;98902.88;4976762;28;19949;-75
2023/09/25 00:59:37;;;;;;;;;;;;;;;24.51;51.57;98893.22;4993211;28;19918;-74
2023/09/25 01:02:02;;;;;;;;;;;;;;;24.50;51.54;98889.75;4993099;28;19928;-74
2023/09/25 01:04:27;;;;;;;;;;;;;;;24.48;51.57;98894.47;4994600;28;20320;-74
2023/09/25 01:06:53;;;;;;;;;;;;;;;24.48;51.60;98891.81;4993373;28;20004;-74
2023/09/25 01:09:18;;;;;;;;;;;;;;;24.47;51.68;98884.00;4993112;28;19917;-74
2023/09/25 01:11:44;;;;;;;;;;;;;;;24.45;51.67;98889.53;4993263;28;19925;-74
2023/09/25 01:14:09;;;;;;;;;;;;;;;24.41;51.75;98884.81;4993064;28;19922;-74
2023/09/25 01:16:35;;;;;;;;;;;;;;;24.41;51.66;98885.63;4992907;28;20382;-74
2023/09/25 01:19:00;;;;;;;;;;;;;;;24.41;51.61;98890.97;4993062;28;20357;-75
2023/09/25 01:21:26;;;;;;;;;;;;;;;24.42;51.51;98889.94;4994178;28;19976;-74
2023/09/25 01:23:51;;;;;;;;;;;;;;;24.32;51.96;98889.50;4992840;28;19929;-74
2023/09/25 01:26:16;;;;;;;;;;;;;;;24.33;51.88;98889.31;4992726;28;19922;-74
2023/09/25 01:28:42;;;;;;;;;;;;;;;24.31;51.99;98890.53;4993950;28;19941;-74
2023/09/25 01:31:07;;;;;;;;;;;;;;;24.31;51.88;98888.69;4992967;28;20393;-74
2023/09/25 01:33:33;;;;;;;;;;;;;;;24.31;51.95;98904.69;4992775;28;20025;-74
2023/09/25 01:35:58;;;;;;;;;;;;;;;24.32;51.87;98900.16;4992899;28;20005;-74
2023/09/25 01:38:23;;;;;;;;;;;;;;;24.34;51.83;98903.47;4992545;28;19921;-74
2023/09/25 01:40:49;;;;;;;;;;;;;;;24.36;51.76;98904.91;4992518;28;19917;-74
2023/09/25 01:43:14;;;;;;;;;;;;;;;24.37;51.62;98905.75;4993110;28;19929;-74
2023/09/25 01:45:39;;;;;;;;;;;;;;;24.34;51.79;98904.28;4991660;28;20008;-74
2023/09/25 01:48:05;;;;;;;;;;;;;;;24.32;51.66;98906.34;4992613;28;20471;-74
2023/09/25 01:50:30;;;;;;;;;;;;;;;24.35;51.68;98911.28;4993648;28;19917;-74
2023/09/25 01:52:59;;;;;;;;;;;;;;;24.37;51.57;98911.91;4993485;28;19964;-74
2023/09/25 01:55:35;;;;;;;;;;;;;;;24.38;51.41;98910.88;4992221;28;20077;-74
2023/09/25 01:58:00;;;;;;;;;;;;;;;24.36;51.50;98914.75;4992109;28;19917;-75
2023/09/25 02:00:26;;;;;;;;;;;;;;;24.36;51.44;98910.25;4993076;28;20028;-75
2023/09/25 02:02:51;;;;;;;;;;;;;;;24.38;51.36;98910.03;4992133;28;19922;-75
2023/09/25 02:05:16;;;;;;;;;;;;;;;24.41;51.40;98906.16;4992195;28;19928;-75
2023/09/25 02:07:42;;;;;;;;;;;;;;;24.39;51.32;98909.03;4976033;28;19925;-75
2023/09/25 02:10:08;;;;;;;;;;;;;;;24.40;51.18;98908.00;4992424;28;20394;-75
2023/09/25 02:12:33;;;;;;;;;;;;;;;24.41;51.16;98906.97;4991478;28;19917;-75
2023/09/25 02:15:01;;;;;;;;;;;;;;;24.43;51.15;98914.78;4992882;28;19940;-75
2023/09/25 02:17:29;;;;;;;;;;;;;;;24.43;51.10;98912.94;4991218;28;20340;-75
2023/09/25 02:19:55;;;;;;;;;;;;;;;24.43;51.03;98914.78;4976031;28;20390;-76
2023/09/25 02:22:20;;;;;;;;;;;;;;;24.42;51.11;98913.16;4992098;28;19957;-75
2023/09/25 02:24:46;;;;;;;;;;;;;;;24.43;50.92;98926.28;4991642;28;19921;-75
2023/09/25 02:27:11;;;;;;;;;;;;;;;24.43;50.87;98912.94;4991442;28;19945;-75
2023/09/25 02:29:36;;;;;;;;;;;;;;;24.43;51.09;98926.28;4993025;28;19972;-75
2023/09/25 02:32:02;;;;;;;;;;;;;;;24.43;50.85;98923.63;4993001;28;19925;-75
2023/09/25 02:34:27;;;;;;;;;;;;;;;24.43;50.87;98923.63;4975720;28;20012;-75
2023/09/25 02:36:52;;;;;;;;;;;;;;;24.43;50.97;98917.44;4992640;28;19968;-75
2023/09/25 02:39:18;;;;;;;;;;;;;;;24.42;50.99;98923.81;4991465;28;19975;-75
2023/09/25 02:41:43;;;;;;;;;;;;;;;24.44;50.97;98924.44;4991363;28;19941;-75
2023/09/25 02:44:09;;;;;;;;;;;;;;;24.44;50.84;98930.56;4992469;28;19918;-75
2023/09/25 02:46:34;;;;;;;;;;;;;;;24.46;50.88;98933.03;4990505;28;20059;-75
2023/09/25 02:48:59;;;;;;;;;;;;;;;24.46;50.93;98930.38;4990490;28;19926;-75
2023/09/25 02:51:25;;;;;;;;;;;;;;;24.45;50.86;98926.88;4974982;28;19917;-75
2023/09/25 02:53:53;;;;;;;;;;;;;;;24.45;50.88;98931.38;4991207;28;19918;-75
2023/09/25 02:56:18;;;;;;;;;;;;;;;24.46;50.97;98925.03;4992131;28;20420;-75
2023/09/25 02:58:44;;;;;;;;;;;;;;;24.46;50.86;98912.50;4991331;28;19989;-75
2023/09/25 03:01:09;;;;;;;;;;;;;;;24.45;50.83;98916.22;4991362;28;19961;-74
2023/09/25 03:03:34;;;;;;;;;;;;;;;24.43;50.93;98914.78;4991306;28;20368;-75
2023/09/25 03:06:00;;;;;;;;;;;;;;;24.41;50.82;98928.31;4991267;28;19924;-75
2023/09/25 03:08:25;;;;;;;;;;;;;;;24.39;50.98;98925.03;4991061;28;19933;-75
2023/09/25 03:10:50;;;;;;;;;;;;;;;24.38;50.75;98924.22;4990938;28;19922;-76
2023/09/25 03:13:16;;;;;;;;;;;;;;;24.39;50.80;98928.50;4974840;28;19930;-76
2023/09/25 03:15:41;;;;;;;;;;;;;;;24.38;50.88;98932.22;4989867;28;20028;-76
2023/09/25 03:18:06;;;;;;;;;;;;;;;24.38;51.02;98940.22;4990839;28;19965;-76
2023/09/25 03:20:33;;;;;;;;;;;;;;;24.38;51.05;98942.06;4989699;28;19944;-75
2023/09/25 03:22:58;;;;;;;;;;;;;;;24.38;50.70;98945.56;4990464;28;19992;-75
2023/09/25 03:25:23;;;;;;;;;;;;;;;24.36;50.93;98952.09;4992234;28;20337;-75
2023/09/25 03:27:49;;;;;;;;;;;;;;;24.34;50.83;98952.31;5008668;28;19925;-73
2023/09/25 03:30:14;;;;;;;;;;;;;;;24.34;50.84;98949.63;5010647;28;19918;-72
2023/09/25 03:32:40;;;;;;;;;;;;;;;24.36;50.97;98952.09;5004338;28;19926;-72
2023/09/25 03:35:05;;;;;;;;;;;;;;;24.50;51.71;98952.97;4990778;28;19918;-71
2023/09/25 03:37:31;;;;;;;;;;;;;;;24.61;51.57;98955.06;4990859;28;19921;-71
2023/09/25 03:39:56;;;;;;;;;;;;;;;24.71;51.55;98949.34;4991790;28;20416;-70
2023/09/25 03:42:21;;;;;;;;;;;;;;;24.77;51.01;98958.38;4974335;28;19922;-73
2023/09/25 03:44:47;;;;;;;;;;;;;;;24.82;50.66;98955.91;4990935;28;19924;-71
2023/09/25 03:47:12;;;;;;;;;;;;;;;24.80;50.71;98963.31;4991816;28;20385;-73
2023/09/25 03:49:39;;;;;;;;;;;;;;;24.75;50.41;98958.59;4974531;28;20313;-74
2023/09/25 03:52:04;;;;;;;;;;;;;;;24.71;50.18;98958.16;4990793;28;19976;-73
2023/09/25 03:54:30;;;;;;;;;;;;;;;24.74;51.30;98967.59;4974168;28;19934;-71
2023/09/25 03:56:55;;;;;;;;;;;;;;;24.87;50.32;98980.16;4973786;28;20361;-70
2023/09/25 03:59:20;;;;;;;;;;;;;;;24.97;49.94;98977.91;4993012;28;19930;-74
2023/09/25 04:01:45;;;;;;;;;;;;;;;24.96;49.41;98980.78;4993813;28;20020;-71
2023/09/25 04:04:11;;;;;;;;;;;;;;;24.96;49.86;98975.44;4994244;28;19925;-72
2023/09/25 04:06:36;;;;;;;;;;;;;;;24.88;49.72;98971.94;4995259;28;20356;-70
2023/09/25 04:09:02;;;;;;;;;;;;;;;24.72;49.56;98961.66;4995104;28;19925;-71
2023/09/25 04:11:27;;;;;;;;;;;;;;;24.59;49.97;98972.31;4993943;28;19969;-74
2023/09/25 04:13:53;;;;;;;;;;;;;;;24.51;49.90;98967.94;4993871;28;20296;-74
2023/09/25 04:16:18;;;;;;;;;;;;;;;24.43;49.94;98973.47;4994083;28;19917;-74
2023/09/25 04:18:43;;;;;;;;;;;;;;;24.35;50.07;98975.31;4993654;28;19917;-74
2023/09/25 04:21:11;;;;;;;;;;;;;;;24.31;50.19;98976.72;4994973;28;20405;-74
2023/09/25 04:23:36;;;;;;;;;;;;;;;24.25;50.05;98982.84;4994801;28;19917;-73
2023/09/25 04:26:03;;;;;;;;;;;;;;;24.20;49.65;98977.31;4994813;28;19933;-73
2023/09/25 04:28:32;;;;;;;;;;;;;;;24.20;49.76;98977.31;4993779;28;19957;-73
2023/09/25 04:30:57;;;;;;;;;;;;;;;24.18;50.07;98977.50;4993822;28;19940;-75
2023/09/25 04:33:24;;;;;;;;;;;;;;;24.17;49.98;98980.38;4977261;28;20386;-75
2023/09/25 04:35:49;;;;;;;;;;;;;;;24.18;49.98;98984.69;4994744;28;20394;-74
2023/09/25 04:38:14;;;;;;;;;;;;;;;24.18;50.00;98985.50;4993753;28;19927;-73
2023/09/25 04:40:42;;;;;;;;;;;;;;;24.14;49.98;98988.75;4990627;28;19928;-76
2023/09/25 04:43:07;;;;;;;;;;;;;;;24.23;50.60;98986.72;4993611;28;20296;-72
2023/09/25 04:45:33;;;;;;;;;;;;;;;24.48;50.38;98987.00;4994893;28;19922;-73
2023/09/25 04:47:59;;;;;;;;;;;;;;;24.70;49.42;98985.88;4995437;28;20444;-71
2023/09/25 04:50:24;;;;;;;;;;;;;;;24.86;48.98;98979.34;4993841;28;19968;-71
2023/09/25 04:52:50;;;;;;;;;;;;;;;24.98;48.67;98984.06;4994822;28;20381;-73
2023/09/25 04:55:15;;;;;;;;;;;;;;;25.10;48.47;98988.59;4993525;28;20349;-73
2023/09/25 04:57:41;;;;;;;;;;;;;;;25.24;48.14;98991.28;4995726;28;20018;-74
2023/09/25 05:00:15;;;;;;;;;;;;;;;25.34;47.68;98986.34;4994097;28;19924;-73
2023/09/25 05:02:42;;;;;;;;;;;;;;;25.41;47.13;98986.34;4993493;28;19932;-73
2023/09/25 05:05:08;;;;;;;;;;;;;;;25.50;47.18;98984.28;4977284;28;19976;-72
2023/09/25 05:07:33;;;;;;;;;;;;;;;25.57;46.92;98983.25;4994972;28;20359;-73
2023/09/25 05:09:58;;;;;;;;;;;;;;;25.64;46.78;98991.25;4995548;28;19929;-73
2023/09/25 05:12:24;;;;;;;;;;;;;;;25.71;46.49;98996.56;4993893;28;19922;-73
2023/09/25 05:14:49;;;;;;;;;;;;;;;25.78;47.03;99000.88;4977868;28;19968;-76
2023/09/25 05:17:15;;;;;;;;;;;;;;;25.82;47.08;98994.09;4993929;28;19918;-73
2023/09/25 05:19:40;;;;;;;;;;;;;;;25.81;46.98;98989.75;4997860;28;20377;-75
2023/09/25 05:22:05;;;;;;;;;;;;;;;25.90;46.67;98993.03;4993420;28;19917;-73
2023/09/25 05:24:31;;;;;;;;;;;;;;;25.99;46.59;98999.00;4993722;28;20294;-72
2023/09/25 05:26:56;;;;;;;;;;;;;;;26.07;46.64;98992.59;4994604;28;19918;-75
2023/09/25 05:29:22;;;;;;;;;;;;;;;26.14;46.30;98991.53;4993040;28;19922;-74
2023/09/25 05:31:47;;;;;;;;;;;;;;;26.21;45.95;99002.22;4993083;28;19921;-75
2023/09/25 05:34:12;;;;;;;;;;;;;;;26.26;46.23;98996.22;4993636;28;20441;-74
2023/09/25 05:36:38;;;;;;;;;;;;;;;26.31;46.17;99002.59;4992688;28;19918;-75
2023/09/25 05:39:03;;;;;;;;;;;;;;;26.39;45.89;98998.00;4992627;28;19968;-76
2023/09/25 05:41:29;;;;;;;;;;;;;;;26.48;45.38;98997.53;4981166;28;19917;-78
2023/09/25 05:43:56;;;;;;;;;;;;;;;26.60;45.24;98999.53;4984466;28;20005;-76
2023/09/25 05:46:21;;;;;;;;;;;;;;;26.72;45.04;99003.19;4972820;28;19929;-75
2023/09/25 05:48:47;;;;;;;;;;;;;;;26.83;44.72;99001.69;4972807;28;20341;-75
2023/09/25 05:51:12;;;;;;;;;;;;;;;26.95;44.34;99001.84;4978435;28;19918;-77
2023/09/25 05:53:37;;;;;;;;;;;;;;;27.04;44.42;99005.88;4977080;28;19925;-73
2023/09/25 05:56:03;;;;;;;;;;;;;;;27.13;44.18;99009.91;4993180;28;19936;-75
2023/09/25 05:58:28;;;;;;;;;;;;;;;27.20;43.94;99018.75;4993526;28;19976;-80
2023/09/25 06:00:53;;;;;;;;;;;;;;;27.35;44.07;99017.63;4992205;28;19933;-74
2023/09/25 06:03:19;;;;;;;;;;;;;;;27.54;43.80;99021.97;4992045;28;19918;-72
2023/09/25 06:05:44;;;;;;;;;;;;;;;27.76;43.74;99008.97;4995786;28;19921;-78
2023/09/25 06:08:09;;;;;;;;;;;;;;;27.93;43.02;99013.75;4978075;28;20455;-77
2023/09/25 06:10:35;;;;;;;;;;;;;;;28.01;42.93;99020.72;4994067;28;19918;-79
2023/09/25 06:13:01;;;;;;;;;;;;;;;28.04;42.89;99021.09;4958492;28;20342;-74
2023/09/25 06:15:30;;;;;;;;;;;;;;;28.00;43.10;99025.25;4985175;28;20332;-75
2023/09/25 06:17:58;;;;;;;;;;;;;;;27.94;42.94;99026.09;4973237;28;20408;-74
2023/09/25 06:20:26;;;;;;;;;;;;;;;27.92;42.83;99022.84;4972894;28;20006;-74
2023/09/25 06:22:51;;;;;;;;;;;;;;;27.91;42.88;99032.75;4973634;28;20106;-75
2023/09/25 06:25:17;;;;;;;;;;;;;;;27.91;43.48;99029.22;4956607;28;20017;-72
2023/09/25 06:27:44;;;;;;;;;;;;;;;28.00;43.42;99029.78;4972840;28;19922;-72
2023/09/25 06:30:10;;;;;;;;;;;;;;;28.07;43.48;99033.22;4956233;28;19925;-72
2023/09/25 06:32:35;;;;;;;;;;;;;;;28.15;43.11;99032.94;4972873;28;19926;-71
2023/09/25 06:35:01;;;;;;;;;;;;;;;28.21;43.73;99036.56;4972366;28;19922;-79
2023/09/25 06:37:26;;;;;;;;;;;;;;;28.26;44.01;99042.06;4973165;28;20389;-82
2023/09/25 06:39:51;;;;;;;;;;;;;;;28.29;44.24;99041.63;4974916;28;19922;-80
2023/09/25 06:42:17;;;;;;;;;;;;;;;28.32;44.45;99043.84;4960160;28;20085;-81
2023/09/25 06:44:42;;;;;;;;;;;;;;;28.51;44.26;99053.53;4975953;28;20451;-85
2023/09/25 06:47:08;;;;;;;;;;;;;;;28.66;44.38;99041.59;4975431;28;19918;-82
2023/09/25 06:49:33;;;;;;;;;;;;;;;28.89;44.09;99043.53;4984798;28;19925;-78
2023/09/25 06:51:59;;;;;;;;;;;;;;;29.06;42.66;99049.06;4960062;28;19918;-76
2023/09/25 06:54:24;;;;;;;;;;;;;;;29.11;41.85;99056.44;4991143;28;20384;-78
2023/09/25 06:56:49;;;;;;;;;;;;;;;29.27;41.07;99050.44;4988365;28;20373;-75
2023/09/25 06:59:15;;;;;;;;;;;;;;;29.36;40.30;99050.91;4976787;28;19952;-79
2023/09/25 07:01:40;;;;;;;;;;;;;;;29.49;40.14;99056.06;4992573;28;19972;-82
2023/09/25 07:04:06;;;;;;;;;;;;;;;29.75;39.68;99060.16;4975448;28;19976;-81
2023/09/25 07:06:35;;;;;;;;;;;;;;;30.11;39.41;99052.91;4976029;28;19926;-81
2023/09/25 07:09:01;;;;;;;;;;;;;;;30.50;38.25;99055.03;4995622;28;19918;-81
2023/09/25 07:11:26;;;;;;;;;;;;;;;30.81;37.47;99055.63;4976355;28;19988;-82
2023/09/25 07:13:51;;;;;;;;;;;;;;;31.24;36.31;99056.94;4976847;28;20452;-81
2023/09/25 07:16:17;;;;;;;;;;;;;;;31.85;35.74;99056.22;4976202;28;19925;-81
2023/09/25 07:18:43;;;;;;;;;;;;;;;32.57;34.56;99046.34;4976763;28;19918;-80
2023/09/25 07:21:09;;;;;;;;;;;;;;;33.16;33.47;99046.41;4993196;28;19961;-79
2023/09/25 07:23:34;;;;;;;;;;;;;;;33.69;32.58;99046.53;4993213;28;19976;-81
2023/09/25 07:26:09;;;;;;;;;;;;;;;34.20;32.02;99048.69;4993315;28;19972;-80
2023/09/25 07:28:35;;;;;;;;;;;;;;;34.68;30.81;99045.91;4977906;28;19924;-79
2023/09/25 07:31:00;;;;;;;;;;;;;;;35.05;29.80;99038.63;4992905;28;19985;-81
2023/09/25 07:33:27;;;;;;;;;;;;;;;35.50;29.35;99045.97;4978222;28;19918;-80
2023/09/25 07:35:53;;;;;;;;;;;;;;;35.94;28.43;99036.34;4997324;28;19922;-80
2023/09/25 07:38:18;;;;;;;;;;;;;;;36.35;27.67;99047.06;4999060;28;19984;-81
2023/09/25 07:40:44;;;;;;;;;;;;;;;36.69;27.33;99048.22;4997465;28;19921;-81
2023/09/25 07:43:10;;;;;;;;;;;;;;;36.83;26.79;99041.13;4980634;28;19925;-82
2023/09/25 07:45:35;;;;;;;;;;;;;;;36.97;26.64;99043.97;4981110;28;19918;-83
2023/09/25 07:48:00;;;;;;;;;;;;;;;37.01;26.41;99052.41;4980832;28;19925;-82
2023/09/25 07:50:26;;;;;;;;;;;;;;;37.15;25.89;99056.09;4980678;28;20111;-81
2023/09/25 07:52:54;;;;;;;;;;;;;;;37.41;25.88;99039.56;4996983;28;19922;-80
2023/09/25 07:55:20;;;;;;;;;;;;;;;37.48;25.06;99040.03;4996532;28;20349;-81
2023/09/25 07:57:46;;;;;;;;;;;;;;;37.56;24.84;99036.69;4997361;28;19925;-83
2023/09/25 08:00:23;;;;;;;;;;;;;;;37.59;24.08;99041.56;4980348;28;19922;-82
2023/09/25 08:02:49;;;;;;;;;;;;;;;37.40;24.91;99035.19;4981812;28;19918;-80
2023/09/25 08:05:17;;;;;;;;;;;;;;;37.33;24.64;99034.75;4980739;28;19921;-83
2023/09/25 08:07:43;;;;;;;;;;;;;;;37.29;24.60;99029.03;4997372;28;19928;-83
2023/09/25 08:10:09;;;;;;;;;;;;;;;37.41;24.19;99026.75;4981139;28;20012;-81
2023/09/25 08:12:34;;;;;;;;;;;;;;;37.32;24.60;99030.38;4997696;28;19917;-81
2023/09/25 08:15:00;;;;;;;;;;;;;;;37.30;23.93;99019.78;4996149;28;20416;-82
2023/09/25 08:17:25;;;;;;;;;;;;;;;37.23;24.11;99020.13;4996560;28;20324;-81
2023/09/25 08:19:51;;;;;;;;;;;;;;;37.25;24.29;99028.00;4996573;28;20305;-80
2023/09/25 08:22:16;;;;;;;;;;;;;;;37.20;23.37;99015.22;4997784;28;19925;-81
2023/09/25 08:24:42;;;;;;;;;;;;;;;36.82;24.16;99023.16;4997217;28;19988;-82
2023/09/25 08:27:08;;;;;;;;;;;;;;;36.91;24.09;99018.75;4998303;28;19918;-83
2023/09/25 08:29:33;;;;;;;;;;;;;;;36.98;24.04;99023.84;4997540;28;19924;-84
2023/09/25 08:31:58;;;;;;;;;;;;;;;37.00;23.96;99021.66;4979304;28;20396;-80
2023/09/25 08:34:24;;;;;;;;;;;;;;;37.00;24.23;99020.84;4995411;28;19976;-81
2023/09/25 08:36:49;;;;;;;;;;;;;;;36.97;23.79;99026.84;4979725;28;19977;-82
2023/09/25 08:39:14;;;;;;;;;;;;;;;36.99;24.08;99027.38;4979887;28;19968;-82
2023/09/25 08:41:40;;;;;;;;;;;;;;;36.89;24.35;99022.84;4996062;28;19918;-83
2023/09/25 08:44:05;;;;;;;;;;;;;;;36.69;23.71;99019.16;4978687;28;19917;-83
2023/09/25 08:46:30;;;;;;;;;;;;;;;36.53;24.58;99031.19;4997231;28;19918;-82
2023/09/25 08:49:01;;;;;;;;;;;;;;;36.65;24.28;99015.34;4996174;28;19918;-84
2023/09/25 08:51:26;;;;;;;;;;;;;;;36.78;23.92;99018.56;5017438;28;19932;-86
2023/09/25 08:53:52;;;;;;;;;;;;;;;36.74;23.95;99010.19;5004364;28;19917;-83
2023/09/25 08:56:18;;;;;;;;;;;;;;;36.75;24.24;99014.50;5020043;28;19909;-85
2023/09/25 08:58:44;;;;;;;;;;;;;;;36.93;23.98;99010.28;5020512;28;19952;-84
2023/09/25 09:01:09;;;;;;;;;;;;;;;36.84;23.49;99015.53;5020181;28;19918;-84
2023/09/25 09:03:36;;;;;;;;;;;;;;;36.78;24.10;99015.84;5020016;28;19913;-83
2023/09/25 09:06:01;;;;;;;;;;;;;;;36.91;23.59;99020.63;5009925;28;19918;-82
2023/09/25 09:08:30;;;;;;;;;;;;;;;37.09;23.29;99017.22;4988662;28;19924;-82
2023/09/25 09:10:55;;;;;;;;;;;;;;;36.85;23.25;99008.19;4987329;28;19918;-83
2023/09/25 09:13:23;;;;;;;;;;;;;;;36.47;23.95;99014.13;4986928;28;19924;-81
2023/09/25 09:15:52;;;;;;;;;;;;;;;36.65;23.84;99023.50;5002926;28;19985;-80
2023/09/25 09:18:18;;;;;;;;;;;;;;;36.96;23.34;99011.63;4984616;28;19922;-83
2023/09/25 09:20:44;;;;;;;;;;;;;;;37.10;23.56;99012.59;5000549;28;20381;-81
2023/09/25 09:23:09;;;;;;;;;;;;;;;37.26;23.24;99005.94;4982646;28;19918;-82
2023/09/25 09:25:35;;;;;;;;;;;;;;;37.24;22.75;99008.16;4982633;28;20389;-83
2023/09/25 09:28:00;;;;;;;;;;;;;;;37.32;22.67;99008.63;4980898;28;19986;-81
2023/09/25 09:30:26;;;;;;;;;;;;;;;37.34;22.77;98995.53;4979177;28;20456;-85
2023/09/25 09:32:51;;;;;;;;;;;;;;;37.56;22.58;99014.06;4994471;28;19922;-84
2023/09/25 09:35:25;;;;;;;;;;;;;;;37.74;22.25;98997.03;4995261;28;19960;-85
2023/09/25 09:37:53;;;;;;;;;;;;;;;37.65;22.13;99005.00;4981167;28;20356;-81
2023/09/25 09:40:21;;;;;;;;;;;;;;;37.31;21.88;99002.38;4978601;28;19918;-83
2023/09/25 09:42:47;;;;;;;;;;;;;;;36.81;21.83;99002.50;4979037;28;20424;-82
2023/09/25 09:45:13;;;;;;;;;;;;;;;36.49;22.54;99003.78;4978989;28;19918;-81
2023/09/25 09:47:42;;;;;;;;;;;;;;;36.46;22.15;98998.91;4978426;28;20344;-82
2023/09/25 09:50:08;;;;;;;;;;;;;;;36.26;22.99;99001.75;4978667;28;20344;-81
2023/09/25 09:52:34;;;;;;;;;;;;;;;36.08;23.31;99001.25;4977594;28;19918;-82
2023/09/25 09:54:59;;;;;;;;;;;;;;;36.36;23.05;98999.78;4977489;28;19928;-85
2023/09/25 09:57:25;;;;;;;;;;;;;;;36.39;23.01;98993.78;4994351;28;19968;-82
2023/09/25 09:59:51;;;;;;;;;;;;;;;36.39;23.07;98990.28;4994642;28;19924;-84
2023/09/25 10:02:17;;;;;;;;;;;;;;;36.21;23.22;99000.66;4993741;28;19921;-82
2023/09/25 10:04:42;;;;;;;;;;;;;;;36.24;22.96;98988.41;4977529;28;19945;-80
2023/09/25 10:07:08;;;;;;;;;;;;;;;36.20;22.84;98995.50;4995110;28;19918;-82
2023/09/25 10:09:34;;;;;;;;;;;;;;;36.34;22.92;98987.56;4993265;28;19917;-83
2023/09/25 10:11:59;;;;;;;;;;;;;;;36.33;22.71;98992.19;4977112;28;19972;-82
2023/09/25 10:14:25;;;;;;;;;;;;;;;36.33;22.92;98985.94;4977267;28;19917;-83
2023/09/25 10:17:00;;;;;;;;;;;;;;;36.19;22.87;98993.88;4977693;28;20020;-82
2023/09/25 10:19:35;;;;;;;;;;;;;;;35.82;22.80;98976.94;4977702;28;19918;-87
2023/09/25 10:22:11;;;;;;;;;;;;;;;35.32;23.42;98975.97;4992829;28;19925;-82
2023/09/25 10:24:36;;;;;;;;;;;;;;;35.42;23.47;98969.69;4993395;28;19972;-84
2023/09/25 10:27:02;;;;;;;;;;;;;;;35.44;23.52;98984.63;4993719;28;19922;-80
2023/09/25 10:29:27;;;;;;;;;;;;;;;35.35;23.18;98966.47;4994867;28;19940;-82
2023/09/25 10:31:53;;;;;;;;;;;;;;;35.15;23.72;98968.91;4993761;28;19918;-83
2023/09/25 10:34:18;;;;;;;;;;;;;;;34.96;23.47;98959.69;4978556;28;19925;-87
2023/09/25 10:36:47;;;;;;;;;;;;;;;34.71;23.05;98953.19;4978578;28;19918;-82
2023/09/25 10:39:15;;;;;;;;;;;;;;;34.34;23.95;98965.06;4994766;28;19917;-83
2023/09/25 10:41:45;;;;;;;;;;;;;;;34.35;23.80;98963.16;4977391;28;19918;-82
2023/09/25 10:44:11;;;;;;;;;;;;;;;34.30;23.47;98960.44;4977822;28;20373;-82
2023/09/25 10:46:36;;;;;;;;;;;;;;;34.31;24.37;98956.66;4977954;28;19918;-84
2023/09/25 10:49:01;;;;;;;;;;;;;;;34.19;23.71;98960.41;4977751;28;19922;-81
2023/09/25 10:51:27;;;;;;;;;;;;;;;34.03;23.98;98967.66;4993485;28;20373;-83
2023/09/25 10:53:53;;;;;;;;;;;;;;;33.89;23.91;98964.63;4994593;28;20361;-82
2023/09/25 10:56:19;;;;;;;;;;;;;;;33.76;24.82;98958.88;4979096;28;19926;-83
2023/09/25 10:58:52;;;;;;;;;;;;;;;33.84;24.11;98951.09;4977437;28;20265;-87
2023/09/25 11:01:24;;;;;;;;;;;;;;;33.91;24.34;98958.16;4978010;28;19918;-81
2023/09/25 11:03:49;;;;;;;;;;;;;;;33.70;24.68;98958.88;4977170;28;19918;-86
2023/09/25 11:06:15;;;;;;;;;;;;;;;33.64;24.91;98957.19;4976700;28;19981;-81
2023/09/25 11:08:40;;;;;;;;;;;;;;;33.75;24.64;98951.81;4993162;28;19918;-84
2023/09/25 11:11:06;;;;;;;;;;;;;;;33.64;24.51;98962.59;4976995;28;19918;-82
2023/09/25 11:13:31;;;;;;;;;;;;;;;33.53;25.03;98939.28;4993334;28;19918;-84
2023/09/25 11:15:57;;;;;;;;;;;;;;;33.52;25.00;98933.03;4977294;28;19917;-85
2023/09/25 11:18:22;;;;;;;;;;;;;;;33.62;25.08;98936.84;4993426;28;20026;-84
2023/09/25 11:20:48;;;;;;;;;;;;;;;33.76;24.94;98931.81;4977638;28;19918;-82
2023/09/25 11:23:14;;;;;;;;;;;;;;;33.61;25.34;98925.22;4977526;28;19918;-86
2023/09/25 11:25:41;;;;;;;;;;;;;;;33.51;25.02;98922.47;4977908;28;19921;-81
2023/09/25 11:28:06;;;;;;;;;;;;;;;33.51;25.51;98926.00;4996087;28;19917;-81
2023/09/25 11:30:32;;;;;;;;;;;;;;;33.50;25.47;98916.25;4993047;28;20432;-86
2023/09/25 11:32:59;;;;;;;;;;;;;;;33.48;25.39;98917.59;4977675;28;19925;-86
2023/09/25 11:35:27;;;;;;;;;;;;;;;33.45;26.05;98932.47;4976819;28;19980;-82
2023/09/25 11:37:55;;;;;;;;;;;;;;;33.35;24.64;98925.09;4993295;28;19933;-80
2023/09/25 11:40:21;;;;;;;;;;;;;;;33.25;25.25;98918.81;4976901;28;20472;-82
2023/09/25 11:42:46;;;;;;;;;;;;;;;33.30;25.36;98914.25;4976288;28;19918;-84
2023/09/25 11:45:13;;;;;;;;;;;;;;;33.13;25.70;98908.16;4993869;28;20446;-84
2023/09/25 11:47:39;;;;;;;;;;;;;;;33.21;25.74;98920.41;4994341;28;19922;-85
2023/09/25 11:50:04;;;;;;;;;;;;;;;33.08;25.95;98911.66;4991341;28;19918;-81
2023/09/25 11:52:30;;;;;;;;;;;;;;;33.07;26.50;98910.03;4992302;28;19918;-84
2023/09/25 11:54:56;;;;;;;;;;;;;;;33.06;26.28;98907.59;4975844;28;19929;-87
2023/09/25 11:57:21;;;;;;;;;;;;;;;33.03;26.60;98905.41;4992910;28;19977;-79
2023/09/25 11:59:47;;;;;;;;;;;;;;;33.01;26.46;98916.47;4975806;28;20455;-83
2023/09/25 12:02:13;;;;;;;;;;;;;;;32.97;26.70;98918.91;4992504;28;19922;-82
2023/09/25 12:04:39;;;;;;;;;;;;;;;32.86;26.43;98916.38;4975983;28;20056;-80
2023/09/25 12:07:05;;;;;;;;;;;;;;;32.78;26.84;98904.13;4976334;28;20020;-86
2023/09/25 12:09:30;;;;;;;;;;;;;;;32.74;26.48;98911.16;4977234;28;19917;-81
2023/09/25 12:11:56;;;;;;;;;;;;;;;32.59;26.62;98917.19;4976895;28;19924;-80
2023/09/25 12:14:21;;;;;;;;;;;;;;;32.51;27.07;98921.19;4993044;28;19922;-82
2023/09/25 12:16:47;;;;;;;;;;;;;;;32.54;27.37;98907.16;4976452;28;19924;-85
2023/09/25 12:19:12;;;;;;;;;;;;;;;32.57;27.29;98909.34;4976353;28;19918;-82
2023/09/25 12:21:37;;;;;;;;;;;;;;;32.48;27.31;98902.78;4995827;28;19917;-81
2023/09/25 12:24:05;;;;;;;;;;;;;;;32.43;27.24;98906.28;4995806;28;19925;-81
2023/09/25 12:26:32;;;;;;;;;;;;;;;32.42;27.54;98911.94;4980117;28;19918;-85
2023/09/25 12:28:58;;;;;;;;;;;;;;;32.43;27.43;98906.28;4980501;28;19983;-81
2023/09/25 12:31:23;;;;;;;;;;;;;;;32.46;27.52;98907.63;4996180;28;19922;-82
2023/09/25 12:33:49;;;;;;;;;;;;;;;32.44;27.73;98909.78;4979214;28;20024;-83
2023/09/25 12:36:15;;;;;;;;;;;;;;;32.45;27.70;98911.41;4979352;28;20313;-81
2023/09/25 12:38:40;;;;;;;;;;;;;;;32.48;27.65;98908.19;4979120;28;19941;-80
2023/09/25 12:41:06;;;;;;;;;;;;;;;32.54;27.74;98909.06;4979026;28;20286;-80